createdAt,value
2023-07-28T00:00:39.930Z,970.28
2023-07-28T00:01:39.918Z,970.27
2023-07-28T00:02:39.777Z,970.28
2023-07-28T00:03:39.707Z,970.27
2023-07-28T00:04:39.630Z,970.26
2023-07-28T00:05:39.533Z,970.24
2023-07-28T00:06:39.718Z,970.18
2023-07-28T00:07:39.383Z,970.13
2023-07-28T00:08:39.300Z,970.06
2023-07-28T00:09:39.228Z,970.10
2023-07-28T00:10:39.164Z,970.10
2023-07-28T00:11:39.077Z,970.02
2023-07-28T00:12:38.989Z,970.03
2023-07-28T00:13:38.921Z,970.00
2023-07-28T00:14:38.845Z,969.99
2023-07-28T00:15:38.780Z,969.99
2023-07-28T00:16:39.004Z,969.97
2023-07-28T00:17:38.691Z,969.98
2023-07-28T00:18:38.531Z,969.98
2023-07-28T00:19:38.463Z,969.99
2023-07-28T00:20:38.373Z,970.00
2023-07-28T00:21:38.304Z,970.00
2023-07-28T00:22:38.226Z,970.02
2023-07-28T00:23:38.148Z,970.01
2023-07-28T00:24:38.079Z,969.97
2023-07-28T00:25:37.990Z,969.94
2023-07-28T00:26:37.911Z,970.00
2023-07-28T00:27:37.842Z,969.99
2023-07-28T00:28:37.757Z,970.00
2023-07-28T00:29:37.693Z,970.02
2023-07-28T00:30:37.630Z,969.98
2023-07-28T00:31:37.533Z,969.96
2023-07-28T00:32:37.470Z,970.03
2023-07-28T00:33:37.374Z,970.00
2023-07-28T00:34:37.301Z,969.98
2023-07-28T00:35:37.222Z,969.98
2023-07-28T00:36:37.464Z,969.98
2023-07-28T00:37:37.069Z,970.01
2023-07-28T00:38:37.000Z,970.06
2023-07-28T00:39:36.921Z,970.03
2023-07-28T00:40:36.832Z,970.07
2023-07-28T00:41:36.759Z,970.03
2023-07-28T00:42:37.303Z,970.06
2023-07-28T00:43:36.612Z,970.05
2023-07-28T00:44:36.528Z,970.05
2023-07-28T00:45:36.472Z,970.02
2023-07-28T00:46:36.717Z,970.03
2023-07-28T00:47:36.326Z,970.01
2023-07-28T00:48:36.219Z,969.98
2023-07-28T00:49:36.134Z,970.04
2023-07-28T00:50:36.068Z,970.04
2023-07-28T00:51:35.995Z,970.05
2023-07-28T00:52:35.912Z,970.04
2023-07-28T00:53:35.830Z,970.04
2023-07-28T00:54:35.769Z,970.06
2023-07-28T00:55:35.680Z,970.04
2023-07-28T00:56:35.821Z,970.10
2023-07-28T00:57:35.518Z,970.11
2023-07-28T00:58:35.454Z,970.12
2023-07-28T00:59:35.380Z,970.14
2023-07-28T01:00:35.286Z,970.13
2023-07-28T01:01:35.247Z,970.14
2023-07-28T01:02:35.173Z,970.16
2023-07-28T01:03:35.080Z,970.13
2023-07-28T01:04:35.047Z,970.17
2023-07-28T01:05:34.899Z,970.16
2023-07-28T01:06:35.165Z,970.18
2023-07-28T01:07:34.752Z,970.12
2023-07-28T01:08:34.675Z,970.14
2023-07-28T01:09:34.600Z,970.12
2023-07-28T01:10:34.517Z,970.11
2023-07-28T01:11:34.446Z,970.13
2023-07-28T01:12:34.370Z,970.07
2023-07-28T01:13:34.288Z,970.05
2023-07-28T01:14:34.211Z,970.11
2023-07-28T01:15:34.142Z,970.08
2023-07-28T01:16:34.379Z,970.03
2023-07-28T01:17:33.979Z,970.02
2023-07-28T01:18:33.906Z,970.06
2023-07-28T01:19:33.861Z,970.08
2023-07-28T01:20:33.749Z,970.05
2023-07-28T01:21:33.685Z,969.99
2023-07-28T01:22:33.597Z,969.95
2023-07-28T01:23:33.532Z,969.97
2023-07-28T01:24:33.440Z,970.02
2023-07-28T01:25:33.355Z,970.00
2023-07-28T01:26:33.483Z,969.98
2023-07-28T01:27:33.206Z,969.96
2023-07-28T01:28:33.122Z,969.97
2023-07-28T01:29:33.054Z,969.99
2023-07-28T01:30:32.979Z,969.95
2023-07-28T01:31:32.921Z,969.97
2023-07-28T01:32:32.844Z,969.93
2023-07-28T01:33:32.750Z,969.92
2023-07-28T01:34:32.668Z,969.94
2023-07-28T01:35:32.598Z,969.95
2023-07-28T01:36:32.894Z,969.95
2023-07-28T01:37:32.438Z,969.95
2023-07-28T01:38:32.358Z,969.88
2023-07-28T01:39:32.277Z,969.89
2023-07-28T01:40:32.199Z,969.88
2023-07-28T01:41:32.124Z,969.88
2023-07-28T01:42:32.054Z,969.90
2023-07-28T01:43:31.972Z,969.88
2023-07-28T01:44:31.905Z,969.86
2023-07-28T01:45:31.880Z,969.87
2023-07-28T01:46:31.888Z,969.88
2023-07-28T01:47:31.684Z,969.88
2023-07-28T01:48:31.588Z,969.83
2023-07-28T01:49:31.513Z,969.84
2023-07-28T01:50:31.447Z,969.82
2023-07-28T01:51:31.362Z,969.88
2023-07-28T01:52:31.272Z,969.89
2023-07-28T01:53:31.211Z,969.86
2023-07-28T01:54:31.137Z,969.87
2023-07-28T01:55:31.047Z,969.90
2023-07-28T01:56:30.995Z,969.92
2023-07-28T01:57:30.894Z,969.89
2023-07-28T01:58:30.818Z,969.94
2023-07-28T01:59:30.739Z,969.91
2023-07-28T02:00:30.660Z,969.90
2023-07-28T02:01:30.623Z,969.91
2023-07-28T02:02:30.546Z,969.92
2023-07-28T02:03:30.428Z,969.95
2023-07-28T02:04:30.459Z,969.96
2023-07-28T02:05:30.276Z,969.98
2023-07-28T02:06:30.202Z,970.00
2023-07-28T02:07:30.118Z,969.97
2023-07-28T02:08:30.037Z,969.94
2023-07-28T02:09:29.966Z,969.93
2023-07-28T02:10:29.895Z,969.93
2023-07-28T02:11:29.828Z,969.95
2023-07-28T02:12:29.740Z,969.93
2023-07-28T02:13:29.670Z,969.91
2023-07-28T02:14:29.580Z,969.88
2023-07-28T02:15:29.507Z,969.92
2023-07-28T02:16:29.430Z,969.95
2023-07-28T02:17:29.371Z,969.92
2023-07-28T02:18:29.271Z,969.93
2023-07-28T02:19:29.188Z,969.92
2023-07-28T02:20:29.111Z,969.92
2023-07-28T02:21:29.128Z,969.95
2023-07-28T02:22:28.960Z,969.92
2023-07-28T02:23:28.891Z,969.92
2023-07-28T02:24:28.810Z,969.88
2023-07-28T02:25:28.732Z,969.86
2023-07-28T02:26:28.650Z,969.83
2023-07-28T02:27:28.575Z,969.82
2023-07-28T02:28:28.579Z,969.79
2023-07-28T02:29:28.417Z,969.78
2023-07-28T02:30:28.346Z,969.80
2023-07-28T02:31:28.315Z,969.79
2023-07-28T02:32:28.229Z,969.80
2023-07-28T02:33:28.112Z,969.79
2023-07-28T02:34:28.031Z,969.83
2023-07-28T02:35:27.959Z,969.84
2023-07-28T02:36:27.877Z,969.86
2023-07-28T02:37:27.797Z,969.82
2023-07-28T02:38:27.823Z,969.82
2023-07-28T02:39:27.669Z,969.78
2023-07-28T02:40:27.568Z,969.79
2023-07-28T02:41:27.498Z,969.76
2023-07-28T02:42:27.418Z,969.74
2023-07-28T02:43:27.339Z,969.72
2023-07-28T02:44:27.263Z,969.74
2023-07-28T02:45:27.183Z,969.74
2023-07-28T02:46:27.253Z,969.77
2023-07-28T02:47:27.037Z,969.78
2023-07-28T02:48:26.954Z,969.79
2023-07-28T02:49:26.876Z,969.79
2023-07-28T02:50:26.793Z,969.78
2023-07-28T02:51:26.727Z,969.79
2023-07-28T02:52:26.645Z,969.86
2023-07-28T02:53:26.569Z,969.86
2023-07-28T02:54:26.492Z,969.85
2023-07-28T02:55:26.446Z,969.88
2023-07-28T02:56:26.341Z,969.88
2023-07-28T02:57:26.261Z,969.93
2023-07-28T02:58:26.205Z,969.94
2023-07-28T02:59:26.122Z,969.97
2023-07-28T03:00:26.027Z,969.97
2023-07-28T03:01:25.968Z,969.99
2023-07-28T03:02:25.932Z,970.03
2023-07-28T03:03:25.935Z,970.03
2023-07-28T03:04:25.718Z,970.03
2023-07-28T03:05:25.642Z,970.06
2023-07-28T03:06:25.571Z,970.06
2023-07-28T03:07:25.482Z,970.07
2023-07-28T03:08:25.406Z,970.05
2023-07-28T03:09:25.336Z,970.07
2023-07-28T03:10:25.255Z,970.06
2023-07-28T03:11:25.185Z,970.07
2023-07-28T03:12:25.102Z,970.09
2023-07-28T03:13:25.017Z,970.10
2023-07-28T03:14:24.955Z,970.09
2023-07-28T03:15:24.866Z,970.09
2023-07-28T03:16:24.827Z,970.08
2023-07-28T03:17:24.732Z,970.03
2023-07-28T03:18:24.639Z,970.03
2023-07-28T03:19:24.556Z,970.00
2023-07-28T03:20:24.485Z,969.98
2023-07-28T03:21:24.424Z,969.99
2023-07-28T03:22:24.331Z,969.96
2023-07-28T03:23:24.248Z,969.95
2023-07-28T03:24:24.174Z,969.97
2023-07-28T03:25:24.106Z,969.96
2023-07-28T03:26:24.024Z,969.97
2023-07-28T03:27:23.951Z,970.03
2023-07-28T03:28:23.908Z,970.09
2023-07-28T03:29:23.804Z,970.09
2023-07-28T03:30:23.791Z,970.10
2023-07-28T03:31:23.679Z,970.10
2023-07-28T03:32:23.590Z,970.11
2023-07-28T03:33:23.477Z,970.09
2023-07-28T03:34:23.400Z,970.14
2023-07-28T03:35:23.322Z,970.14
2023-07-28T03:36:23.242Z,970.15
2023-07-28T03:37:23.175Z,970.16
2023-07-28T03:38:23.095Z,970.17
2023-07-28T03:39:23.023Z,970.21
2023-07-28T03:40:22.937Z,970.25
2023-07-28T03:41:22.865Z,970.28
2023-07-28T03:42:22.794Z,970.31
2023-07-28T03:43:22.721Z,970.30
2023-07-28T03:44:22.631Z,970.32
2023-07-28T03:45:22.554Z,970.28
2023-07-28T03:46:22.566Z,970.29
2023-07-28T03:47:22.460Z,970.26
2023-07-28T03:48:22.326Z,970.24
2023-07-28T03:49:22.251Z,970.23
2023-07-28T03:50:22.171Z,970.20
2023-07-28T03:51:22.094Z,970.24
2023-07-28T03:52:22.012Z,970.24
2023-07-28T03:53:21.929Z,970.20
2023-07-28T03:54:23.377Z,970.17
2023-07-28T03:55:21.784Z,970.16
2023-07-28T03:56:21.703Z,970.22
2023-07-28T03:57:21.629Z,970.19
2023-07-28T03:58:21.548Z,970.17
2023-07-28T03:59:21.476Z,970.23
2023-07-28T04:00:21.397Z,970.20
2023-07-28T04:01:21.352Z,970.25
2023-07-28T04:02:21.243Z,970.25
2023-07-28T04:03:21.163Z,970.27
2023-07-28T04:04:21.080Z,970.28
2023-07-28T04:05:21.037Z,970.23
2023-07-28T04:06:20.930Z,970.23
2023-07-28T04:07:20.851Z,970.21
2023-07-28T04:08:20.779Z,970.23
2023-07-28T04:09:20.701Z,970.26
2023-07-28T04:10:20.616Z,970.25
2023-07-28T04:11:20.542Z,970.25
2023-07-28T04:12:20.467Z,970.26
2023-07-28T04:13:20.382Z,970.29
2023-07-28T04:14:20.306Z,970.31
2023-07-28T04:15:20.253Z,970.30
2023-07-28T04:16:20.222Z,970.29
2023-07-28T04:17:20.218Z,970.29
2023-07-28T04:18:20.005Z,970.27
2023-07-28T04:19:19.925Z,970.21
2023-07-28T04:20:19.868Z,970.20
2023-07-28T04:21:19.763Z,970.17
2023-07-28T04:22:19.689Z,970.15
2023-07-28T04:23:19.650Z,970.22
2023-07-28T04:24:19.539Z,970.22
2023-07-28T04:25:19.459Z,970.28
2023-07-28T04:26:19.393Z,970.27
2023-07-28T04:27:19.305Z,970.26
2023-07-28T04:28:19.252Z,970.28
2023-07-28T04:29:19.157Z,970.24
2023-07-28T04:30:19.072Z,970.28
2023-07-28T04:31:19.037Z,970.34
2023-07-28T04:32:18.917Z,970.35
2023-07-28T04:33:18.837Z,970.42
2023-07-28T04:34:18.763Z,970.41
2023-07-28T04:35:18.678Z,970.44
2023-07-28T04:36:18.608Z,970.45
2023-07-28T04:37:18.536Z,970.46
2023-07-28T04:38:18.475Z,970.48
2023-07-28T04:39:18.378Z,970.43
2023-07-28T04:40:18.295Z,970.46
2023-07-28T04:41:18.217Z,970.40
2023-07-28T04:42:18.150Z,970.42
2023-07-28T04:43:18.072Z,970.38
2023-07-28T04:44:17.998Z,970.38
2023-07-28T04:45:17.909Z,970.31
2023-07-28T04:46:17.840Z,970.33
2023-07-28T04:47:17.759Z,970.37
2023-07-28T04:48:17.678Z,970.32
2023-07-28T04:49:17.605Z,970.32
2023-07-28T04:50:17.529Z,970.31
2023-07-28T04:51:17.449Z,970.30
2023-07-28T04:52:17.373Z,970.30
2023-07-28T04:53:17.294Z,970.27
2023-07-28T04:54:17.220Z,970.24
2023-07-28T04:55:17.141Z,970.26
2023-07-28T04:56:17.063Z,970.26
2023-07-28T04:57:16.988Z,970.27
2023-07-28T04:58:16.918Z,970.25
2023-07-28T04:59:16.835Z,970.27
2023-07-28T05:00:16.751Z,970.27
2023-07-28T05:01:16.753Z,970.26
2023-07-28T05:02:16.627Z,970.27
2023-07-28T05:03:16.529Z,970.27
2023-07-28T05:04:16.532Z,970.27
2023-07-28T05:05:16.373Z,970.29
2023-07-28T05:06:16.300Z,970.29
2023-07-28T05:07:16.214Z,970.34
2023-07-28T05:08:16.142Z,970.31
2023-07-28T05:09:16.056Z,970.32
2023-07-28T05:10:15.979Z,970.28
2023-07-28T05:11:15.907Z,970.33
2023-07-28T05:12:15.835Z,970.34
2023-07-28T05:13:15.748Z,970.33
2023-07-28T05:14:15.675Z,970.30
2023-07-28T05:15:15.591Z,970.32
2023-07-28T05:16:15.528Z,970.30
2023-07-28T05:17:16.961Z,970.28
2023-07-28T05:18:15.377Z,970.28
2023-07-28T05:19:15.290Z,970.32
2023-07-28T05:20:15.212Z,970.31
2023-07-28T05:21:15.130Z,970.34
2023-07-28T05:22:15.053Z,970.35
2023-07-28T05:23:14.976Z,970.38
2023-07-28T05:24:14.900Z,970.40
2023-07-28T05:25:14.823Z,970.30
2023-07-28T05:26:14.758Z,970.32
2023-07-28T05:27:14.667Z,970.35
2023-07-28T05:28:14.628Z,970.35
2023-07-28T05:29:14.510Z,970.38
2023-07-28T05:30:14.436Z,970.41
2023-07-28T05:31:14.436Z,970.40
2023-07-28T05:32:14.320Z,970.33
2023-07-28T05:33:14.206Z,970.28
2023-07-28T05:34:14.157Z,970.34
2023-07-28T05:35:14.057Z,970.32
2023-07-28T05:36:13.975Z,970.35
2023-07-28T05:37:13.900Z,970.42
2023-07-28T05:38:13.822Z,970.46
2023-07-28T05:39:13.741Z,970.40
2023-07-28T05:40:13.673Z,970.37
2023-07-28T05:41:13.592Z,970.34
2023-07-28T05:42:13.518Z,970.31
2023-07-28T05:43:13.434Z,970.33
2023-07-28T05:44:13.353Z,970.33
2023-07-28T05:45:13.304Z,970.33
2023-07-28T05:46:13.219Z,970.35
2023-07-28T05:47:13.134Z,970.36
2023-07-28T05:48:13.084Z,970.38
2023-07-28T05:49:12.983Z,970.36
2023-07-28T05:50:12.897Z,970.37
2023-07-28T05:51:12.820Z,970.36
2023-07-28T05:52:12.740Z,970.37
2023-07-28T05:53:12.658Z,970.43
2023-07-28T05:54:12.580Z,970.41
2023-07-28T05:55:12.505Z,970.40
2023-07-28T05:56:12.425Z,970.45
2023-07-28T05:57:12.358Z,970.43
2023-07-28T05:58:12.281Z,970.43
2023-07-28T05:59:12.197Z,970.41
2023-07-28T06:00:12.134Z,970.41
2023-07-28T06:01:12.093Z,970.36
2023-07-28T06:02:11.991Z,970.38
2023-07-28T06:03:11.962Z,970.38
2023-07-28T06:04:11.811Z,970.41
2023-07-28T06:05:11.740Z,970.45
2023-07-28T06:06:11.668Z,970.44
2023-07-28T06:07:11.584Z,970.44
2023-07-28T06:08:11.514Z,970.46
2023-07-28T06:09:11.426Z,970.45
2023-07-28T06:10:11.354Z,970.51
2023-07-28T06:11:11.270Z,970.53
2023-07-28T06:12:11.192Z,970.55
2023-07-28T06:13:11.122Z,970.54
2023-07-28T06:14:11.048Z,970.51
2023-07-28T06:15:10.964Z,970.54
2023-07-28T06:16:10.951Z,970.54
2023-07-28T06:17:10.820Z,970.53
2023-07-28T06:18:10.729Z,970.54
2023-07-28T06:19:10.671Z,970.56
2023-07-28T06:20:10.603Z,970.54
2023-07-28T06:21:10.512Z,970.59
2023-07-28T06:22:10.428Z,970.54
2023-07-28T06:23:10.361Z,970.54
2023-07-28T06:24:10.269Z,970.53
2023-07-28T06:25:10.198Z,970.56
2023-07-28T06:26:10.118Z,970.58
2023-07-28T06:27:10.115Z,970.55
2023-07-28T06:28:09.973Z,970.57
2023-07-28T06:29:09.918Z,970.64
2023-07-28T06:30:09.821Z,970.65
2023-07-28T06:31:09.779Z,970.68
2023-07-28T06:32:09.650Z,970.69
2023-07-28T06:33:09.574Z,970.70
2023-07-28T06:34:09.498Z,970.68
2023-07-28T06:35:09.415Z,970.69
2023-07-28T06:36:09.354Z,970.70
2023-07-28T06:37:09.266Z,970.70
2023-07-28T06:38:09.194Z,970.71
2023-07-28T06:39:09.122Z,970.70
2023-07-28T06:40:09.044Z,970.73
2023-07-28T06:41:08.960Z,970.76
2023-07-28T06:42:08.879Z,970.74
2023-07-28T06:43:08.803Z,970.73
2023-07-28T06:44:08.725Z,970.74
2023-07-28T06:45:08.658Z,970.78
2023-07-28T06:46:08.593Z,970.79
2023-07-28T06:47:08.494Z,970.80
2023-07-28T06:48:08.418Z,970.83
2023-07-28T06:49:08.340Z,970.84
2023-07-28T06:50:08.304Z,970.84
2023-07-28T06:51:08.184Z,970.84
2023-07-28T06:52:08.111Z,970.83
2023-07-28T06:53:08.023Z,970.89
2023-07-28T06:54:07.951Z,970.93
2023-07-28T06:55:07.871Z,970.95
2023-07-28T06:56:07.802Z,970.96
2023-07-28T06:57:07.742Z,970.95
2023-07-28T06:58:07.646Z,970.94
2023-07-28T06:59:15.694Z,971.03
2023-07-28T07:00:07.495Z,971.06
2023-07-28T07:01:07.539Z,971.03
2023-07-28T07:02:07.385Z,971.06
2023-07-28T07:03:07.309Z,971.09
2023-07-28T07:04:07.179Z,971.06
2023-07-28T07:05:07.141Z,971.08
2023-07-28T07:06:07.030Z,971.04
2023-07-28T07:07:06.953Z,971.04
2023-07-28T07:08:06.871Z,971.07
2023-07-28T07:09:06.798Z,971.04
2023-07-28T07:10:06.722Z,971.01
2023-07-28T07:11:06.648Z,971.01
2023-07-28T07:12:06.569Z,971.05
2023-07-28T07:13:06.493Z,971.02
2023-07-28T07:14:06.409Z,971.04
2023-07-28T07:15:06.341Z,971.05
2023-07-28T07:16:06.281Z,971.01
2023-07-28T07:17:06.182Z,971.05
2023-07-28T07:18:06.127Z,971.04
2023-07-28T07:19:06.031Z,971.06
2023-07-28T07:20:05.945Z,971.07
2023-07-28T07:21:05.872Z,971.07
2023-07-28T07:22:05.799Z,971.09
2023-07-28T07:23:05.730Z,971.11
2023-07-28T07:24:05.652Z,971.09
2023-07-28T07:25:05.570Z,971.15
2023-07-28T07:26:05.498Z,971.18
2023-07-28T07:27:05.421Z,971.17
2023-07-28T07:28:05.391Z,971.14
2023-07-28T07:29:05.254Z,971.14
2023-07-28T07:30:05.189Z,971.15
2023-07-28T07:31:05.137Z,971.18
2023-07-28T07:32:05.025Z,971.21
2023-07-28T07:33:04.951Z,971.22
2023-07-28T07:34:04.870Z,971.25
2023-07-28T07:35:04.795Z,971.28
2023-07-28T07:36:04.723Z,971.27
2023-07-28T07:37:04.643Z,971.29
2023-07-28T07:38:04.567Z,971.27
2023-07-28T07:39:04.503Z,971.26
2023-07-28T07:40:04.434Z,971.23
2023-07-28T07:41:04.348Z,971.26
2023-07-28T07:42:04.303Z,971.26
2023-07-28T07:43:04.205Z,971.23
2023-07-28T07:44:04.120Z,971.21
2023-07-28T07:45:04.043Z,971.23
2023-07-28T07:46:03.983Z,971.22
2023-07-28T07:47:03.897Z,971.25
2023-07-28T07:48:03.936Z,971.24
2023-07-28T07:49:03.744Z,971.25
2023-07-28T07:50:03.670Z,971.26
2023-07-28T07:51:03.594Z,971.27
2023-07-28T07:52:03.529Z,971.29
2023-07-28T07:53:03.434Z,971.28
2023-07-28T07:54:03.363Z,971.30
2023-07-28T07:55:03.280Z,971.30
2023-07-28T07:56:03.207Z,971.31
2023-07-28T07:57:03.155Z,971.34
2023-07-28T07:58:03.050Z,971.34
2023-07-28T07:59:03.355Z,971.32
2023-07-28T08:00:02.906Z,971.35
2023-07-28T08:01:02.846Z,971.35
2023-07-28T08:02:02.764Z,971.38
2023-07-28T08:03:02.722Z,971.42
2023-07-28T08:04:02.635Z,971.40
2023-07-28T08:05:02.520Z,971.43
2023-07-28T08:06:02.449Z,971.49
2023-07-28T08:07:02.372Z,971.50
2023-07-28T08:08:02.295Z,971.45
2023-07-28T08:09:02.217Z,971.49
2023-07-28T08:10:02.136Z,971.54
2023-07-28T08:11:02.518Z,971.52
2023-07-28T08:12:01.990Z,971.51
2023-07-28T08:13:01.912Z,971.51
2023-07-28T08:14:01.840Z,971.50
2023-07-28T08:15:01.807Z,971.55
2023-07-28T08:16:01.734Z,971.53
2023-07-28T08:17:01.609Z,971.56
2023-07-28T08:18:01.589Z,971.55
2023-07-28T08:19:01.467Z,971.56
2023-07-28T08:20:01.418Z,971.58
2023-07-28T08:21:01.316Z,971.53
2023-07-28T08:22:01.239Z,971.58
2023-07-28T08:23:01.152Z,971.54
2023-07-28T08:24:01.079Z,971.56
2023-07-28T08:25:00.996Z,971.53
2023-07-28T08:26:00.925Z,971.59
2023-07-28T08:27:00.855Z,971.56
2023-07-28T08:28:00.800Z,971.58
2023-07-28T08:29:00.688Z,971.58
2023-07-28T08:30:00.645Z,971.65
2023-07-28T08:31:00.705Z,971.56
2023-07-28T08:32:00.461Z,971.64
2023-07-28T08:33:00.459Z,971.62
2023-07-28T08:34:00.329Z,971.57
2023-07-28T08:35:00.237Z,971.62
2023-07-28T08:36:02.777Z,971.64
2023-07-28T08:37:00.087Z,971.63
2023-07-28T08:38:00.012Z,971.70
2023-07-28T08:38:59.933Z,971.72
2023-07-28T08:39:59.851Z,971.70
2023-07-28T08:40:59.920Z,971.66
2023-07-28T08:41:59.718Z,971.71
2023-07-28T08:42:59.637Z,971.70
2023-07-28T08:43:59.552Z,971.76
2023-07-28T08:44:59.488Z,971.73
2023-07-28T08:45:59.404Z,971.74
2023-07-28T08:46:59.336Z,971.78
2023-07-28T08:47:59.311Z,971.76
2023-07-28T08:48:59.177Z,971.79
2023-07-28T08:49:59.099Z,971.78
2023-07-28T08:50:59.022Z,971.81
2023-07-28T08:51:58.945Z,971.74
2023-07-28T08:52:58.873Z,971.76
2023-07-28T08:53:58.797Z,971.65
2023-07-28T08:54:58.721Z,971.63
2023-07-28T08:55:58.644Z,971.59
2023-07-28T08:56:58.572Z,971.59
2023-07-28T08:57:58.486Z,971.58
2023-07-28T08:58:58.418Z,971.56
2023-07-28T08:59:58.341Z,971.59
2023-07-28T09:00:58.352Z,971.60
2023-07-28T09:01:58.220Z,971.63
2023-07-28T09:02:58.169Z,971.67
2023-07-28T09:03:58.030Z,971.69
2023-07-28T09:04:57.964Z,971.69
2023-07-28T09:05:57.882Z,971.73
2023-07-28T09:06:57.808Z,971.69
2023-07-28T09:07:57.730Z,971.70
2023-07-28T09:08:57.655Z,971.68
2023-07-28T09:09:57.596Z,971.72
2023-07-28T09:10:57.512Z,971.74
2023-07-28T09:11:57.431Z,971.74
2023-07-28T09:12:57.361Z,971.76
2023-07-28T09:13:57.276Z,971.75
2023-07-28T09:14:57.204Z,971.72
2023-07-28T09:15:57.130Z,971.77
2023-07-28T09:16:57.060Z,971.75
2023-07-28T09:17:57.003Z,971.73
2023-07-28T09:18:56.914Z,971.73
2023-07-28T09:19:56.833Z,971.74
2023-07-28T09:20:56.753Z,971.75
2023-07-28T09:21:56.677Z,971.73
2023-07-28T09:22:56.602Z,971.74
2023-07-28T09:23:56.522Z,971.74
2023-07-28T09:24:56.452Z,971.75
2023-07-28T09:25:56.365Z,971.77
2023-07-28T09:26:56.294Z,971.78
2023-07-28T09:27:56.242Z,971.74
2023-07-28T09:28:56.222Z,971.72
2023-07-28T09:29:56.378Z,971.72
2023-07-28T09:30:56.031Z,971.79
2023-07-28T09:31:55.920Z,971.74
2023-07-28T09:32:55.878Z,971.75
2023-07-28T09:33:55.770Z,971.78
2023-07-28T09:34:55.699Z,971.75
2023-07-28T09:35:55.626Z,971.77
2023-07-28T09:36:55.548Z,971.85
2023-07-28T09:37:55.464Z,971.82
2023-07-28T09:38:55.391Z,971.85
2023-07-28T09:39:55.313Z,971.84
2023-07-28T09:40:55.252Z,971.84
2023-07-28T09:41:55.171Z,971.80
2023-07-28T09:42:56.333Z,971.78
2023-07-28T09:43:55.009Z,971.79
2023-07-28T09:44:54.936Z,971.78
2023-07-28T09:45:54.878Z,971.79
2023-07-28T09:46:54.794Z,971.84
2023-07-28T09:47:54.731Z,971.82
2023-07-28T09:48:54.634Z,971.81
2023-07-28T09:49:54.564Z,971.80
2023-07-28T09:50:54.492Z,971.85
2023-07-28T09:51:54.416Z,971.83
2023-07-28T09:52:54.347Z,971.82
2023-07-28T09:53:54.268Z,971.84
2023-07-28T09:54:54.341Z,971.82
2023-07-28T09:55:54.108Z,971.79
2023-07-28T09:56:54.030Z,971.82
2023-07-28T09:57:53.960Z,971.82
2023-07-28T09:58:53.880Z,971.81
2023-07-28T09:59:53.806Z,971.88
2023-07-28T10:00:53.758Z,971.86
2023-07-28T10:01:53.687Z,971.91
2023-07-28T10:02:53.641Z,971.92
2023-07-28T10:03:53.548Z,971.86
2023-07-28T10:04:53.433Z,971.90
2023-07-28T10:05:53.352Z,971.90
2023-07-28T10:06:53.279Z,971.95
2023-07-28T10:07:53.215Z,971.92
2023-07-28T10:08:53.123Z,971.93
2023-07-28T10:09:53.045Z,971.91
2023-07-28T10:10:52.977Z,971.94
2023-07-28T10:11:52.901Z,971.93
2023-07-28T10:12:52.859Z,971.98
2023-07-28T10:13:52.798Z,971.96
2023-07-28T10:14:52.674Z,972.00
2023-07-28T10:15:52.643Z,971.97
2023-07-28T10:16:52.521Z,972.02
2023-07-28T10:17:52.469Z,971.96
2023-07-28T10:18:52.370Z,971.99
2023-07-28T10:19:52.297Z,971.99
2023-07-28T10:20:52.237Z,972.01
2023-07-28T10:21:52.139Z,971.96
2023-07-28T10:22:52.123Z,971.98
2023-07-28T10:23:51.989Z,972.02
2023-07-28T10:24:51.921Z,972.06
2023-07-28T10:25:51.869Z,972.03
2023-07-28T10:26:51.761Z,972.05
2023-07-28T10:27:51.739Z,972.02
2023-07-28T10:28:51.619Z,972.03
2023-07-28T10:29:51.539Z,972.02
2023-07-28T10:30:51.474Z,972.03
2023-07-28T10:31:51.538Z,972.04
2023-07-28T10:32:51.333Z,972.03
2023-07-28T10:33:51.232Z,972.06
2023-07-28T10:34:51.176Z,972.07
2023-07-28T10:35:51.088Z,972.07
2023-07-28T10:36:51.010Z,972.06
2023-07-28T10:37:50.930Z,972.07
2023-07-28T10:38:50.860Z,972.12
2023-07-28T10:39:50.787Z,972.10
2023-07-28T10:40:50.712Z,972.09
2023-07-28T10:41:50.636Z,972.09
2023-07-28T10:42:50.569Z,972.12
2023-07-28T10:43:50.481Z,972.16
2023-07-28T10:44:50.404Z,972.12
2023-07-28T10:45:50.349Z,972.11
2023-07-28T10:46:50.264Z,972.10
2023-07-28T10:47:50.206Z,972.10
2023-07-28T10:48:50.134Z,972.11
2023-07-28T10:49:50.035Z,972.12
2023-07-28T10:50:49.968Z,972.11
2023-07-28T10:51:49.884Z,972.13
2023-07-28T10:52:49.813Z,972.14
2023-07-28T10:53:49.738Z,972.21
2023-07-28T10:54:49.663Z,972.15
2023-07-28T10:55:49.587Z,972.18
2023-07-28T10:56:49.552Z,972.17
2023-07-28T10:57:49.432Z,972.12
2023-07-28T10:58:49.363Z,972.15
2023-07-28T10:59:49.285Z,972.16
2023-07-28T11:00:49.239Z,972.15
2023-07-28T11:01:49.217Z,972.18
2023-07-28T11:02:49.212Z,972.18
2023-07-28T11:03:48.986Z,972.17
2023-07-28T11:04:48.926Z,972.17
2023-07-28T11:05:48.833Z,972.15
2023-07-28T11:06:48.782Z,972.16
2023-07-28T11:07:48.689Z,972.20
2023-07-28T11:08:48.618Z,972.16
2023-07-28T11:09:48.567Z,972.18
2023-07-28T11:10:48.467Z,972.17
2023-07-28T11:11:48.688Z,972.16
2023-07-28T11:12:48.321Z,972.13
2023-07-28T11:13:48.259Z,972.14
2023-07-28T11:14:48.170Z,972.13
2023-07-28T11:15:48.089Z,972.13
2023-07-28T11:16:48.046Z,972.14
2023-07-28T11:17:47.963Z,972.15
2023-07-28T11:18:47.869Z,972.19
2023-07-28T11:19:47.794Z,972.18
2023-07-28T11:20:47.730Z,972.18
2023-07-28T11:21:47.668Z,972.16
2023-07-28T11:22:47.580Z,972.12
2023-07-28T11:23:47.496Z,972.09
2023-07-28T11:24:47.428Z,972.08
2023-07-28T11:25:47.354Z,972.08
2023-07-28T11:26:47.291Z,972.12
2023-07-28T11:27:47.204Z,972.09
2023-07-28T11:28:47.127Z,972.12
2023-07-28T11:29:47.063Z,972.13
2023-07-28T11:30:47.021Z,972.15
2023-07-28T11:31:46.957Z,972.13
2023-07-28T11:32:46.858Z,972.13
2023-07-28T11:33:46.783Z,972.10
2023-07-28T11:34:46.690Z,972.13
2023-07-28T11:35:46.622Z,972.10
2023-07-28T11:36:46.551Z,972.14
2023-07-28T11:37:46.474Z,972.12
2023-07-28T11:38:46.387Z,972.12
2023-07-28T11:39:46.326Z,972.20
2023-07-28T11:40:46.255Z,972.22
2023-07-28T11:41:46.183Z,972.14
2023-07-28T11:42:46.132Z,972.21
2023-07-28T11:43:46.033Z,972.20
2023-07-28T11:44:45.952Z,972.18
2023-07-28T11:45:45.883Z,972.24
2023-07-28T11:46:45.856Z,972.22
2023-07-28T11:47:45.772Z,972.20
2023-07-28T11:48:45.698Z,972.20
2023-07-28T11:49:45.591Z,972.24
2023-07-28T11:50:45.522Z,972.23
2023-07-28T11:51:45.446Z,972.21
2023-07-28T11:52:45.364Z,972.26
2023-07-28T11:53:45.292Z,972.25
2023-07-28T11:54:45.241Z,972.26
2023-07-28T11:55:45.151Z,972.27
2023-07-28T11:56:45.081Z,972.20
2023-07-28T11:57:45.004Z,972.21
2023-07-28T11:58:44.941Z,972.18
2023-07-28T11:59:44.855Z,972.23
2023-07-28T12:00:44.788Z,972.24
2023-07-28T12:02:44.864Z,972.27
2023-07-28T12:03:44.668Z,972.28
2023-07-28T12:06:55.800Z,972.35
2023-07-28T12:07:44.270Z,972.31
2023-07-28T12:08:44.203Z,972.32
2023-07-28T12:09:44.142Z,972.31
2023-07-28T12:10:44.046Z,972.33
2023-07-28T12:14:49.536Z,972.36
2023-07-28T12:19:43.556Z,972.33
2023-07-28T12:20:43.322Z,972.34
2023-07-28T12:21:43.258Z,972.33
2023-07-28T12:22:43.178Z,972.34
2023-07-28T12:24:43.025Z,972.37
2023-07-28T12:25:42.961Z,972.40
2023-07-28T12:26:42.886Z,972.38
2023-07-28T12:27:42.815Z,972.41
2023-07-28T12:28:45.124Z,972.43
2023-07-28T12:29:50.836Z,972.42
2023-07-28T12:30:42.642Z,972.40
2023-07-28T12:31:46.194Z,972.43
2023-07-28T12:33:01.438Z,972.45
2023-07-28T12:33:42.385Z,972.44
2023-07-28T12:38:42.803Z,972.43
2023-07-28T12:41:43.920Z,972.40
2023-07-28T12:46:41.446Z,972.37
2023-07-28T12:47:41.420Z,972.33
2023-07-28T12:49:52.336Z,972.36